createdAt,value
2023-02-16T00:01:35.765Z,34.10
2023-02-16T00:04:08.605Z,28.92
2023-02-16T00:06:35.299Z,27.15
2023-02-16T00:09:02.051Z,30.73
2023-02-16T00:11:51.037Z,31.58
2023-02-16T00:14:19.217Z,33.05
2023-02-16T00:16:45.925Z,32.22
2023-02-16T00:19:23.268Z,27.35
2023-02-16T00:21:51.678Z,30.85
2023-02-16T00:24:18.798Z,29.17
2023-02-16T00:26:46.443Z,30.17
2023-02-16T00:29:36.331Z,32.83
2023-02-16T00:32:05.787Z,31.90
2023-02-16T00:34:32.573Z,28.50
2023-02-16T00:37:01.148Z,29.90
2023-02-16T00:39:28.553Z,28.23
2023-02-16T00:41:58.747Z,27.08
2023-02-16T00:44:37.538Z,29.95
2023-02-16T00:47:32.316Z,30.42
2023-02-16T00:49:59.056Z,30.25
2023-02-16T00:52:37.332Z,31.83
2023-02-16T00:55:09.058Z,30.08
2023-02-16T00:57:58.117Z,29.75
2023-02-16T01:00:26.457Z,31.55
2023-02-16T01:02:57.256Z,28.65
2023-02-16T01:05:24.608Z,34.78
2023-02-16T01:08:09.854Z,30.83
2023-02-16T01:10:56.707Z,32.78
2023-02-16T01:13:25.058Z,30.40
2023-02-16T01:15:51.979Z,29.88
2023-02-16T01:18:19.593Z,29.30
2023-02-16T01:20:47.180Z,29.42
2023-02-16T01:23:14.480Z,28.15
2023-02-16T01:25:42.180Z,30.35
2023-02-16T01:28:18.360Z,30.50
2023-02-16T01:30:45.130Z,28.92
2023-02-16T01:33:11.847Z,30.05
2023-02-16T01:35:38.974Z,29.98
2023-02-16T01:38:05.790Z,26.92
2023-02-16T01:40:35.291Z,30.45
2023-02-16T01:43:26.971Z,31.77
2023-02-16T01:46:11.938Z,33.88
2023-02-16T01:48:38.855Z,23.85
2023-02-16T01:51:22.060Z,30.77
2023-02-16T01:54:13.855Z,31.48
2023-02-16T01:56:45.961Z,35.88
2023-02-16T01:59:29.490Z,33.50
2023-02-16T02:02:02.789Z,32.60
2023-02-16T02:04:53.633Z,31.60
2023-02-16T02:07:36.766Z,29.15
2023-02-16T02:10:11.517Z,28.30
2023-02-16T02:12:48.280Z,29.63
2023-02-16T02:15:19.731Z,30.60
2023-02-16T02:17:46.403Z,29.90
2023-02-16T02:20:21.868Z,28.48
2023-02-16T02:23:33.764Z,30.55
2023-02-16T02:26:18.839Z,29.58
2023-02-16T02:29:02.434Z,30.17
2023-02-16T02:31:53.276Z,29.58
2023-02-16T02:34:53.891Z,27.85
2023-02-16T02:37:32.578Z,32.45
2023-02-16T02:40:08.995Z,28.48
2023-02-16T02:42:41.495Z,28.55
2023-02-16T02:45:15.565Z,29.40
2023-02-16T02:47:44.854Z,29.10
2023-02-16T02:50:40.760Z,30.15
2023-02-16T02:53:13.942Z,32.42
2023-02-16T02:56:05.170Z,27.48
2023-02-16T02:58:53.582Z,27.95
2023-02-16T03:01:21.707Z,26.92
2023-02-16T03:03:52.294Z,26.02
2023-02-16T03:06:37.644Z,25.75
2023-02-16T03:09:14.354Z,27.00
2023-02-16T03:12:00.710Z,26.33
2023-02-16T03:14:34.989Z,26.42
2023-02-16T03:20:09.976Z,23.67
2023-02-16T03:22:56.608Z,26.67
2023-02-16T03:25:45.236Z,29.25
2023-02-16T03:28:31.877Z,26.02
2023-02-16T03:31:01.542Z,26.65
2023-02-16T03:33:29.475Z,26.48
2023-02-16T03:35:58.114Z,28.23
2023-02-16T03:38:24.998Z,26.90
2023-02-16T03:40:52.814Z,27.75
2023-02-16T03:43:19.655Z,25.60
2023-02-16T03:45:46.417Z,26.50
2023-02-16T03:48:13.581Z,25.77
2023-02-16T03:50:40.407Z,26.25
2023-02-16T03:53:07.391Z,27.05
2023-02-16T03:55:36.785Z,27.40
2023-02-16T03:58:04.926Z,26.15
2023-02-16T04:00:32.309Z,28.80
2023-02-16T04:02:59.023Z,29.83
2023-02-16T04:05:26.244Z,29.42
2023-02-16T04:07:53.089Z,27.55
2023-02-16T04:10:20.305Z,25.15
2023-02-16T04:12:47.034Z,26.00
2023-02-16T04:15:16.631Z,24.42
2023-02-16T04:17:43.929Z,27.85
2023-02-16T04:20:13.359Z,24.27
2023-02-16T04:22:40.269Z,23.33
2023-02-16T04:25:08.527Z,28.17
2023-02-16T04:27:36.065Z,26.63
2023-02-16T04:30:05.137Z,32.92
2023-02-16T04:32:31.880Z,29.65
2023-02-16T04:34:58.551Z,37.28
2023-02-16T04:37:25.327Z,38.65
2023-02-16T04:39:51.981Z,38.90
2023-02-16T04:42:18.639Z,29.60
2023-02-16T04:44:45.388Z,35.03
2023-02-16T04:47:12.078Z,31.02
2023-02-16T04:49:38.731Z,27.52
2023-02-16T04:52:06.021Z,27.38
2023-02-16T04:54:33.741Z,26.65
2023-02-16T04:57:00.439Z,25.35
2023-02-16T04:59:27.469Z,27.90
2023-02-16T05:01:54.453Z,30.75
2023-02-16T05:04:21.229Z,26.33
2023-02-16T05:06:47.945Z,30.42
2023-02-16T05:09:14.688Z,32.95
2023-02-16T05:11:59.741Z,40.50
2023-02-16T05:14:41.796Z,29.60
2023-02-16T05:17:10.961Z,23.45
2023-02-16T05:19:37.679Z,28.50
2023-02-16T05:22:04.519Z,24.63
2023-02-16T05:24:31.192Z,28.88
2023-02-16T05:26:57.882Z,30.55
2023-02-16T05:29:24.623Z,32.45
2023-02-16T05:31:51.408Z,32.30
2023-02-16T05:34:18.395Z,30.63
2023-02-16T05:36:45.094Z,32.58
2023-02-16T05:39:11.768Z,32.13
2023-02-16T05:41:38.468Z,35.38
2023-02-16T05:44:06.924Z,30.38
2023-02-16T05:46:36.030Z,25.95
2023-02-16T05:49:03.416Z,24.75
2023-02-16T05:51:30.239Z,25.00
2023-02-16T05:53:57.838Z,28.23
2023-02-16T05:56:25.100Z,24.73
2023-02-16T05:58:52.822Z,27.42
2023-02-16T06:01:20.365Z,31.63
2023-02-16T06:03:47.899Z,30.63
2023-02-16T06:06:14.662Z,28.80
2023-02-16T06:08:41.487Z,28.25
2023-02-16T06:11:28.645Z,28.77
2023-02-16T06:13:58.440Z,28.60
2023-02-16T06:16:27.208Z,29.88
2023-02-16T06:18:55.027Z,26.05
2023-02-16T06:21:23.013Z,25.58
2023-02-16T06:23:49.988Z,29.98
2023-02-16T06:26:17.198Z,29.70
2023-02-16T06:28:44.133Z,27.08
2023-02-16T06:31:11.281Z,26.48
2023-02-16T06:33:38.085Z,28.48
2023-02-16T06:36:05.978Z,27.77
2023-02-16T06:38:32.680Z,28.98
2023-02-16T06:40:59.384Z,31.15
2023-02-16T06:43:26.129Z,30.23
2023-02-16T06:45:53.178Z,29.58
2023-02-16T06:48:20.037Z,31.52
2023-02-16T06:50:46.769Z,29.15
2023-02-16T06:53:13.408Z,30.55
2023-02-16T06:55:40.133Z,33.67
2023-02-16T06:58:07.933Z,30.67
2023-02-16T07:00:35.278Z,27.58
2023-02-16T07:03:02.479Z,30.17
2023-02-16T07:05:29.217Z,32.63
2023-02-16T07:07:56.138Z,30.92
2023-02-16T07:10:22.816Z,32.38
2023-02-16T07:12:49.486Z,31.13
2023-02-16T07:15:16.228Z,32.60
2023-02-16T07:17:42.891Z,29.23
2023-02-16T07:20:12.543Z,26.55
2023-02-16T07:22:39.308Z,32.03
2023-02-16T07:25:06.369Z,30.02
2023-02-16T07:27:33.197Z,31.92
2023-02-16T07:29:59.899Z,31.17
2023-02-16T07:32:28.544Z,30.95
2023-02-16T07:34:55.223Z,41.70
2023-02-16T07:37:21.885Z,38.53
2023-02-16T07:39:48.550Z,33.30
2023-02-16T07:42:15.303Z,33.00
2023-02-16T07:44:41.984Z,32.55
2023-02-16T07:47:08.674Z,57.35
2023-02-16T07:49:35.399Z,38.45
2023-02-16T07:52:02.096Z,32.95
2023-02-16T07:54:28.743Z,30.23
2023-02-16T07:56:55.433Z,28.70
2023-02-16T07:59:22.142Z,30.58
2023-02-16T08:01:49.173Z,29.05
2023-02-16T08:04:15.924Z,30.05
2023-02-16T08:06:42.642Z,31.05
2023-02-16T08:09:09.362Z,29.23
2023-02-16T08:11:36.057Z,29.60
2023-02-16T08:14:02.764Z,31.17
2023-02-16T08:16:29.870Z,30.15
2023-02-16T08:18:57.734Z,32.42
2023-02-16T08:21:31.917Z,62.75
2023-02-16T08:24:05.464Z,36.70
2023-02-16T08:26:43.210Z,29.98
2023-02-16T08:29:13.280Z,33.35
2023-02-16T08:31:40.317Z,72.55
2023-02-16T08:34:07.881Z,28.05
2023-02-16T08:36:40.036Z,24.48
2023-02-16T08:39:15.030Z,24.00
2023-02-16T08:41:43.192Z,23.70
2023-02-16T08:44:11.330Z,23.63
2023-02-16T08:46:40.503Z,25.02
2023-02-16T08:49:08.633Z,28.58
2023-02-16T08:51:38.512Z,29.45
2023-02-16T08:54:08.565Z,27.83
2023-02-16T08:56:35.838Z,25.48
2023-02-16T08:59:02.704Z,25.60
2023-02-16T09:01:29.596Z,23.13
2023-02-16T09:03:56.253Z,24.38
2023-02-16T09:06:23.184Z,25.63
2023-02-16T09:08:54.625Z,21.75
2023-02-16T09:11:22.762Z,24.90
2023-02-16T09:13:50.479Z,23.02
2023-02-16T09:16:23.579Z,24.83
2023-02-16T09:18:52.139Z,23.20
2023-02-16T09:21:21.576Z,29.15
2023-02-16T09:23:50.218Z,21.92
2023-02-16T09:26:18.797Z,22.95
2023-02-16T09:28:47.210Z,24.45
2023-02-16T09:31:27.159Z,27.88
2023-02-16T09:33:56.152Z,23.48
2023-02-16T09:36:23.371Z,24.08
2023-02-16T09:38:51.361Z,29.00
2023-02-16T09:41:36.229Z,24.67
2023-02-16T09:46:35.429Z,22.85
2023-02-16T09:49:03.752Z,24.23
2023-02-16T09:51:37.993Z,101.07
2023-02-16T09:54:30.831Z,27.20
2023-02-16T09:57:08.304Z,25.13
2023-02-16T10:00:04.689Z,23.92
2023-02-16T10:02:54.750Z,24.45
2023-02-16T10:05:30.331Z,25.90
2023-02-16T10:08:05.635Z,23.67
2023-02-16T10:10:58.357Z,23.85
2023-02-16T10:13:34.702Z,28.27
2023-02-16T10:16:04.257Z,23.73
2023-02-16T10:18:42.691Z,21.60
2023-02-16T10:21:17.683Z,22.33
2023-02-16T10:24:06.074Z,28.55
2023-02-16T10:26:38.768Z,23.17
2023-02-16T10:29:19.078Z,23.38
2023-02-16T10:31:56.956Z,21.25
2023-02-16T10:34:49.266Z,21.58
2023-02-16T10:37:45.823Z,20.70
2023-02-16T10:40:12.596Z,25.52
2023-02-16T10:42:46.668Z,26.15
2023-02-16T10:45:35.868Z,25.63
2023-02-16T10:48:02.910Z,21.08
2023-02-16T10:50:42.972Z,20.77
2023-02-16T10:53:18.702Z,20.80
2023-02-16T10:55:45.793Z,22.92
2023-02-16T10:58:29.531Z,21.35
2023-02-16T11:01:10.138Z,23.10
2023-02-16T11:03:44.741Z,20.73
2023-02-16T11:08:54.135Z,21.77
2023-02-16T11:11:22.899Z,20.77
2023-02-16T11:13:57.060Z,21.27
2023-02-16T11:16:24.449Z,22.92
2023-02-16T11:19:01.367Z,21.20
2023-02-16T11:21:49.139Z,20.98
2023-02-16T11:24:29.638Z,20.90
2023-02-16T11:27:07.336Z,19.17
2023-02-16T11:29:34.518Z,22.08
2023-02-16T11:32:07.437Z,18.73
2023-02-16T11:34:37.017Z,21.63
2023-02-16T11:37:12.822Z,20.95
2023-02-16T11:39:41.427Z,19.05
2023-02-16T11:42:19.721Z,18.00
2023-02-16T11:44:56.344Z,19.52
2023-02-16T11:47:23.107Z,19.75
2023-02-16T11:50:04.460Z,19.80
2023-02-16T11:52:32.609Z,20.52
2023-02-16T11:55:01.267Z,17.95
2023-02-16T11:57:31.159Z,16.67
2023-02-16T11:59:59.806Z,18.13
2023-02-16T12:03:00.356Z,16.05
2023-02-16T12:05:47.719Z,18.38
2023-02-16T12:08:20.152Z,15.90
2023-02-16T12:10:52.910Z,15.88
2023-02-16T12:13:36.182Z,16.83
2023-02-16T12:16:34.206Z,16.27
2023-02-16T12:19:32.380Z,17.95
2023-02-16T12:22:29.229Z,16.35
2023-02-16T12:25:19.993Z,16.70
2023-02-16T12:28:03.330Z,14.90
2023-02-16T12:30:48.518Z,14.85
2023-02-16T12:33:36.384Z,16.20
2023-02-16T12:36:23.892Z,14.48
2023-02-16T12:39:02.590Z,15.80
2023-02-16T12:42:04.994Z,17.13
2023-02-16T12:44:42.614Z,16.27
2023-02-16T12:47:18.106Z,16.80
2023-02-16T12:49:56.233Z,16.40
2023-02-16T12:52:38.826Z,19.02
2023-02-16T12:55:30.939Z,13.25
2023-02-16T12:58:09.549Z,15.57
2023-02-16T13:01:00.266Z,16.25
2023-02-16T13:03:55.316Z,16.20
2023-02-16T13:06:31.152Z,15.50
2023-02-16T13:09:16.252Z,18.75
2023-02-16T13:11:46.386Z,17.00
2023-02-16T13:14:25.046Z,14.40
2023-02-16T13:16:51.668Z,14.20
2023-02-16T13:19:18.547Z,15.93
2023-02-16T13:21:54.426Z,23.75
2023-02-16T13:24:58.409Z,23.35
2023-02-16T13:27:41.998Z,16.75
2023-02-16T13:30:48.698Z,18.10
2023-02-16T13:33:40.846Z,16.75
2023-02-16T13:36:47.340Z,17.50
2023-02-16T13:43:41.980Z,15.85
2023-02-16T13:46:18.421Z,13.45
2023-02-16T13:48:50.656Z,15.82
2023-02-16T13:51:20.644Z,16.63
2023-02-16T13:53:56.159Z,15.10
2023-02-16T13:56:29.370Z,16.65
2023-02-16T13:58:58.371Z,18.13
2023-02-16T14:01:43.017Z,16.35
2023-02-16T14:04:22.047Z,15.55
2023-02-16T14:06:50.992Z,15.30
2023-02-16T14:09:17.630Z,15.82
2023-02-16T14:11:53.451Z,15.75
2023-02-16T14:14:44.845Z,15.65
2023-02-16T14:17:17.712Z,15.98
2023-02-16T14:20:02.210Z,17.63
2023-02-16T14:22:50.660Z,14.35
2023-02-16T14:25:23.312Z,14.40
2023-02-16T14:27:54.499Z,13.65
2023-02-16T14:30:35.493Z,14.93
2023-02-16T14:33:20.354Z,14.90
2023-02-16T14:38:43.397Z,17.38
2023-02-16T14:41:34.531Z,16.40
2023-02-16T14:44:04.246Z,13.57
2023-02-16T14:46:50.994Z,9.25
2023-02-16T14:49:52.425Z,10.00
2023-02-16T14:52:45.916Z,7.78
2023-02-16T14:55:23.082Z,8.63
2023-02-16T14:58:02.181Z,11.35
2023-02-16T15:00:34.740Z,10.02
2023-02-16T15:03:02.927Z,8.65
2023-02-16T15:05:33.080Z,10.60
2023-02-16T15:08:23.900Z,7.70
2023-02-16T15:10:56.179Z,10.68
2023-02-16T15:13:26.678Z,8.35
2023-02-16T15:15:56.686Z,12.48
2023-02-16T15:18:29.077Z,14.02
2023-02-16T15:21:00.784Z,12.48
2023-02-16T15:23:34.554Z,10.05
2023-02-16T15:26:09.175Z,12.45
2023-02-16T15:28:39.139Z,11.25
2023-02-16T15:31:18.242Z,14.18
2023-02-16T15:33:55.628Z,11.88
2023-02-16T15:36:33.829Z,12.45
2023-02-16T15:39:05.117Z,13.05
2023-02-16T15:41:38.276Z,12.55
2023-02-16T15:44:07.661Z,37.83
2023-02-16T15:46:40.309Z,12.18
2023-02-16T15:49:15.156Z,15.45
2023-02-16T15:51:43.155Z,12.60
2023-02-16T15:54:28.189Z,11.30
2023-02-16T15:56:56.904Z,15.18
2023-02-16T15:59:41.253Z,12.50
2023-02-16T16:02:34.350Z,12.73
2023-02-16T16:05:04.120Z,19.75
2023-02-16T16:07:37.081Z,25.75
2023-02-16T16:10:15.806Z,28.63
2023-02-16T16:12:43.739Z,21.60
2023-02-16T16:15:18.199Z,34.80
2023-02-16T16:20:38.082Z,24.67
2023-02-16T16:23:23.976Z,47.72
2023-02-16T16:25:51.342Z,23.23
2023-02-16T16:28:27.307Z,23.58
2023-02-16T16:31:14.457Z,25.67
2023-02-16T16:33:56.166Z,17.50
2023-02-16T16:36:35.104Z,14.48
2023-02-16T16:39:11.373Z,15.55
2023-02-16T16:41:40.266Z,15.35
2023-02-16T16:44:12.694Z,14.50
2023-02-16T16:46:40.178Z,17.48
2023-02-16T16:49:15.734Z,13.93
2023-02-16T16:51:43.233Z,14.43
2023-02-16T16:54:21.834Z,20.50
2023-02-16T16:56:48.533Z,15.60
2023-02-16T16:59:15.201Z,14.45
2023-02-16T17:01:42.518Z,26.20
2023-02-16T17:04:09.328Z,19.40
2023-02-16T17:06:40.262Z,19.92
2023-02-16T17:09:06.980Z,22.95
2023-02-16T17:11:36.841Z,19.50
2023-02-16T17:14:16.243Z,17.13
2023-02-16T17:16:48.380Z,19.02
2023-02-16T17:19:17.302Z,16.98
2023-02-16T17:21:45.356Z,19.08
2023-02-16T17:24:12.770Z,17.50
2023-02-16T17:26:39.984Z,20.60
2023-02-16T17:29:07.473Z,18.48
2023-02-16T17:31:34.368Z,17.27
2023-02-16T17:34:01.346Z,20.90
2023-02-16T17:36:28.401Z,18.50
2023-02-16T17:38:55.191Z,20.00
2023-02-16T17:41:24.189Z,20.33
2023-02-16T17:43:51.360Z,19.90
2023-02-16T17:46:19.318Z,20.15
2023-02-16T17:48:51.969Z,19.77
2023-02-16T17:51:20.568Z,20.77
2023-02-16T17:53:47.489Z,20.55
2023-02-16T17:56:16.659Z,21.23
2023-02-16T17:58:43.511Z,35.38
2023-02-16T18:01:13.802Z,26.63
2023-02-16T18:03:40.866Z,24.02
2023-02-16T18:06:08.064Z,24.65
2023-02-16T18:08:34.783Z,21.48
2023-02-16T18:11:04.328Z,24.33
2023-02-16T18:13:31.597Z,25.80
2023-02-16T18:16:01.790Z,23.58
2023-02-16T18:18:28.573Z,25.38
2023-02-16T18:20:55.325Z,27.58
2023-02-16T18:23:22.017Z,28.08
2023-02-16T18:25:48.738Z,28.35
2023-02-16T18:28:21.224Z,29.27
2023-02-16T18:30:49.339Z,29.15
2023-02-16T18:33:23.927Z,28.02
2023-02-16T18:35:57.570Z,28.60
2023-02-16T18:38:24.876Z,26.43
2023-02-16T18:40:53.520Z,30.38
2023-02-16T18:43:21.293Z,29.17
2023-02-16T18:45:48.313Z,30.33
2023-02-16T18:48:14.995Z,27.67
2023-02-16T18:50:41.747Z,27.48
2023-02-16T18:53:08.419Z,28.90
2023-02-16T18:55:35.656Z,28.27
2023-02-16T18:58:07.420Z,25.33
2023-02-16T19:00:34.976Z,25.75
2023-02-16T19:03:01.799Z,27.65
2023-02-16T19:05:28.540Z,26.63
2023-02-16T19:07:55.324Z,29.25
2023-02-16T19:10:22.097Z,26.92
2023-02-16T19:12:48.845Z,27.80
2023-02-16T19:15:15.565Z,27.95
2023-02-16T19:17:42.402Z,30.88
2023-02-16T19:20:12.297Z,28.75
2023-02-16T19:22:39.060Z,31.15
2023-02-16T19:25:06.863Z,31.48
2023-02-16T19:27:33.735Z,28.38
2023-02-16T19:30:00.567Z,32.05
2023-02-16T19:32:27.383Z,32.72
2023-02-16T19:34:54.076Z,28.17
2023-02-16T19:37:21.121Z,31.00
2023-02-16T19:39:48.146Z,29.95
2023-02-16T19:42:15.046Z,29.95
2023-02-16T19:44:41.855Z,29.70
2023-02-16T19:47:08.867Z,28.63
2023-02-16T19:49:36.587Z,23.52
2023-02-16T19:52:04.324Z,23.85
2023-02-16T19:54:34.777Z,26.40
2023-02-16T19:57:02.837Z,28.52
2023-02-16T19:59:30.651Z,28.17
2023-02-16T20:01:58.844Z,25.75
2023-02-16T20:04:25.768Z,24.92
2023-02-16T20:06:54.490Z,25.27
2023-02-16T20:09:22.032Z,30.30
2023-02-16T20:11:48.936Z,28.35
2023-02-16T20:14:15.992Z,28.90
2023-02-16T20:16:42.842Z,26.88
2023-02-16T20:19:09.639Z,25.83
2023-02-16T20:21:36.560Z,30.25
2023-02-16T20:24:05.987Z,29.58
2023-02-16T20:26:36.044Z,28.45
2023-02-16T20:29:05.237Z,26.15
2023-02-16T20:31:42.644Z,30.30
2023-02-16T20:34:10.433Z,27.67
2023-02-16T20:40:25.304Z,26.05
2023-02-16T20:42:51.909Z,25.70
2023-02-16T20:45:18.729Z,29.92
2023-02-16T20:47:45.410Z,28.00
2023-02-16T20:50:12.118Z,28.33
2023-02-16T20:52:39.837Z,27.50
2023-02-16T20:55:07.737Z,26.85
2023-02-16T20:57:35.622Z,25.30
2023-02-16T21:00:12.965Z,23.98
2023-02-16T21:02:40.641Z,28.48
2023-02-16T21:05:11.856Z,30.70
2023-02-16T21:07:38.476Z,30.70
2023-02-16T21:10:08.982Z,28.25
2023-02-16T21:12:35.776Z,29.98
2023-02-16T21:15:02.477Z,27.55
2023-02-16T21:17:29.525Z,27.40
2023-02-16T21:19:56.332Z,28.02
2023-02-16T21:22:24.681Z,29.85
2023-02-16T21:24:52.327Z,27.20
2023-02-16T21:27:18.978Z,26.35
2023-02-16T21:29:45.730Z,30.42
2023-02-16T21:32:12.631Z,27.52
2023-02-16T21:34:39.338Z,25.75
2023-02-16T21:37:05.965Z,28.10
2023-02-16T21:39:51.026Z,28.60
2023-02-16T21:42:17.692Z,27.17
2023-02-16T21:44:44.278Z,27.85
2023-02-16T21:47:33.017Z,29.05
2023-02-16T21:49:59.817Z,29.42
2023-02-16T21:52:27.204Z,28.20
2023-02-16T21:55:19.912Z,27.58
2023-02-16T21:57:46.590Z,29.42
2023-02-16T22:00:15.434Z,29.23
2023-02-16T22:02:42.152Z,27.17
2023-02-16T22:05:12.144Z,27.70
2023-02-16T22:07:38.866Z,30.17
2023-02-16T22:10:06.460Z,26.52
2023-02-16T22:12:33.275Z,25.02
2023-02-16T22:14:59.994Z,26.42
2023-02-16T22:17:26.786Z,26.70
2023-02-16T22:19:53.463Z,25.42
2023-02-16T22:22:20.264Z,27.83
2023-02-16T22:24:46.950Z,28.45
2023-02-16T22:27:13.691Z,27.75
2023-02-16T22:29:40.379Z,26.27
2023-02-16T22:32:07.126Z,25.95
2023-02-16T22:34:34.064Z,27.27
2023-02-16T22:37:00.801Z,27.48
2023-02-16T22:39:27.526Z,29.73
2023-02-16T22:41:54.182Z,27.60
2023-02-16T22:44:21.017Z,29.05
2023-02-16T22:46:48.204Z,27.50
2023-02-16T22:49:15.059Z,31.90
2023-02-16T22:51:41.888Z,28.98
2023-02-16T22:54:08.580Z,28.60
2023-02-16T22:56:35.371Z,32.10
2023-02-16T22:59:02.110Z,28.55
2023-02-16T23:01:29.901Z,28.70
2023-02-16T23:03:58.420Z,28.35
2023-02-16T23:06:37.076Z,28.85
2023-02-16T23:09:18.722Z,25.15
2023-02-16T23:11:46.238Z,25.40
2023-02-16T23:14:19.025Z,24.10
2023-02-16T23:16:51.643Z,22.27
2023-02-16T23:19:21.220Z,22.70
2023-02-16T23:21:48.754Z,23.40
2023-02-16T23:24:18.622Z,25.23
2023-02-16T23:26:46.301Z,22.13
2023-02-16T23:29:14.009Z,21.50
2023-02-16T23:31:42.802Z,24.40
2023-02-16T23:34:11.043Z,24.65
2023-02-16T23:36:38.800Z,21.75
2023-02-16T23:39:09.060Z,24.58
2023-02-16T23:41:36.238Z,21.80
2023-02-16T23:44:04.314Z,23.00
2023-02-16T23:46:31.176Z,22.38
2023-02-16T23:48:58.196Z,20.42
2023-02-16T23:51:25.591Z,23.27
2023-02-16T23:53:52.506Z,24.08
2023-02-16T23:56:28.100Z,22.50
2023-02-16T23:58:59.709Z,21.58
